sensor_id;sensor_type;location;lat;lon;timestamp;P1;P2;P0
31330;PMS5003;34067;39.548;-76.088;2024-01-10T00:01:23;11;11;
31330;PMS5003;34067;39.548;-76.088;2024-01-10T00:03:51;8;8;
31330;PMS5003;34067;39.548;-76.088;2024-01-10T00:06:19;5;4;
31330;PMS5003;34067;39.548;-76.088;2024-01-10T00:08:47;4;3;
31330;PMS5003;34067;39.548;-76.088;2024-01-10T00:11:15;7;6;
31330;PMS5003;34067;39.548;-76.088;2024-01-10T00:13:43;8;4;
31330;PMS5003;34067;39.548;-76.088;2024-01-10T00:16:12;4;3;
31330;PMS5003;34067;39.548;-76.088;2024-01-10T00:18:41;3;3;
31330;PMS5003;34067;39.548;-76.088;2024-01-10T00:21:10;1;1;
31330;PMS5003;34067;39.548;-76.088;2024-01-10T00:23:37;2;1;
31330;PMS5003;34067;39.548;-76.088;2024-01-10T00:26:05;2;2;
31330;PMS5003;34067;39.548;-76.088;2024-01-10T00:28:33;2;2;
31330;PMS5003;34067;39.548;-76.088;2024-01-10T00:31:01;4;3;
31330;PMS5003;34067;39.548;-76.088;2024-01-10T00:33:29;1;1;
31330;PMS5003;34067;39.548;-76.088;2024-01-10T00:35:58;0;0;
31330;PMS5003;34067;39.548;-76.088;2024-01-10T00:38:26;1;1;
31330;PMS5003;34067;39.548;-76.088;2024-01-10T00:40:54;3;2;
31330;PMS5003;34067;39.548;-76.088;2024-01-10T00:43:22;1;1;
31330;PMS5003;34067;39.548;-76.088;2024-01-10T00:45:50;2;2;
31330;PMS5003;34067;39.548;-76.088;2024-01-10T00:48:18;2;2;
31330;PMS5003;34067;39.548;-76.088;2024-01-10T00:50:46;1;0;
31330;PMS5003;34067;39.548;-76.088;2024-01-10T00:53:15;2;2;
31330;PMS5003;34067;39.548;-76.088;2024-01-10T00:55:42;2;1;
31330;PMS5003;34067;39.548;-76.088;2024-01-10T00:58:10;2;2;
31330;PMS5003;34067;39.548;-76.088;2024-01-10T01:00:38;2;2;
31330;PMS5003;34067;39.548;-76.088;2024-01-10T01:03:06;3;2;
31330;PMS5003;34067;39.548;-76.088;2024-01-10T01:05:34;2;2;
31330;PMS5003;34067;39.548;-76.088;2024-01-10T01:08:02;1;1;
31330;PMS5003;34067;39.548;-76.088;2024-01-10T01:10:30;1;1;
31330;PMS5003;34067;39.548;-76.088;2024-01-10T01:12:58;1;0;
31330;PMS5003;34067;39.548;-76.088;2024-01-10T01:15:26;2;1;
31330;PMS5003;34067;39.548;-76.088;2024-01-10T01:17:54;1;1;
31330;PMS5003;34067;39.548;-76.088;2024-01-10T01:20:22;2;1;
31330;PMS5003;34067;39.548;-76.088;2024-01-10T01:22:50;1;1;
31330;PMS5003;34067;39.548;-76.088;2024-01-10T01:25:18;1;1;
31330;PMS5003;34067;39.548;-76.088;2024-01-10T01:27:46;2;1;
31330;PMS5003;34067;39.548;-76.088;2024-01-10T01:30:14;1;1;
31330;PMS5003;34067;39.548;-76.088;2024-01-10T01:32:42;0;0;
31330;PMS5003;34067;39.548;-76.088;2024-01-10T01:35:10;0;0;
31330;PMS5003;34067;39.548;-76.088;2024-01-10T01:37:38;0;0;
31330;PMS5003;34067;39.548;-76.088;2024-01-10T01:40:07;2;1;
31330;PMS5003;34067;39.548;-76.088;2024-01-10T01:42:35;1;1;
31330;PMS5003;34067;39.548;-76.088;2024-01-10T01:45:03;0;0;
31330;PMS5003;34067;39.548;-76.088;2024-01-10T01:47:31;1;1;
31330;PMS5003;34067;39.548;-76.088;2024-01-10T01:49:59;0;0;
31330;PMS5003;34067;39.548;-76.088;2024-01-10T01:52:27;0;0;
31330;PMS5003;34067;39.548;-76.088;2024-01-10T01:54:58;0;0;
31330;PMS5003;34067;39.548;-76.088;2024-01-10T01:57:26;1;1;
31330;PMS5003;34067;39.548;-76.088;2024-01-10T01:59:53;1;1;
31330;PMS5003;34067;39.548;-76.088;2024-01-10T02:02:21;0;0;
31330;PMS5003;34067;39.548;-76.088;2024-01-10T02:04:50;1;0;
31330;PMS5003;34067;39.548;-76.088;2024-01-10T02:07:18;1;1;
31330;PMS5003;34067;39.548;-76.088;2024-01-10T02:09:46;0;0;
31330;PMS5003;34067;39.548;-76.088;2024-01-10T02:12:14;3;2;
31330;PMS5003;34067;39.548;-76.088;2024-01-10T02:14:42;4;2;
31330;PMS5003;34067;39.548;-76.088;2024-01-10T02:17:10;3;2;
31330;PMS5003;34067;39.548;-76.088;2024-01-10T02:19:38;1;1;
31330;PMS5003;34067;39.548;-76.088;2024-01-10T02:22:06;2;1;
31330;PMS5003;34067;39.548;-76.088;2024-01-10T02:24:34;2;2;
31330;PMS5003;34067;39.548;-76.088;2024-01-10T02:27:02;2;0;
31330;PMS5003;34067;39.548;-76.088;2024-01-10T02:29:30;1;1;
31330;PMS5003;34067;39.548;-76.088;2024-01-10T02:31:58;0;0;
31330;PMS5003;34067;39.548;-76.088;2024-01-10T02:34:26;1;1;
31330;PMS5003;34067;39.548;-76.088;2024-01-10T02:36:56;5;3;
31330;PMS5003;34067;39.548;-76.088;2024-01-10T02:39:24;3;2;
31330;PMS5003;34067;39.548;-76.088;2024-01-10T02:41:52;2;1;
31330;PMS5003;34067;39.548;-76.088;2024-01-10T02:44:20;1;1;
31330;PMS5003;34067;39.548;-76.088;2024-01-10T02:46:48;2;2;
31330;PMS5003;34067;39.548;-76.088;2024-01-10T02:49:16;3;2;
31330;PMS5003;34067;39.548;-76.088;2024-01-10T02:51:44;1;1;
31330;PMS5003;34067;39.548;-76.088;2024-01-10T02:54:12;6;5;
31330;PMS5003;34067;39.548;-76.088;2024-01-10T02:56:40;1;1;
31330;PMS5003;34067;39.548;-76.088;2024-01-10T02:59:08;1;0;
31330;PMS5003;34067;39.548;-76.088;2024-01-10T03:01:36;2;0;
31330;PMS5003;34067;39.548;-76.088;2024-01-10T03:04:04;2;2;
31330;PMS5003;34067;39.548;-76.088;2024-01-10T03:06:33;1;0;
31330;PMS5003;34067;39.548;-76.088;2024-01-10T03:09:01;1;1;
31330;PMS5003;34067;39.548;-76.088;2024-01-10T03:11:29;1;1;
31330;PMS5003;34067;39.548;-76.088;2024-01-10T03:14:00;0;0;
31330;PMS5003;34067;39.548;-76.088;2024-01-10T03:16:29;0;0;
31330;PMS5003;34067;39.548;-76.088;2024-01-10T03:18:57;0;0;
31330;PMS5003;34067;39.548;-76.088;2024-01-10T03:21:25;1;0;
31330;PMS5003;34067;39.548;-76.088;2024-01-10T03:23:54;0;0;
31330;PMS5003;34067;39.548;-76.088;2024-01-10T03:26:22;1;0;
31330;PMS5003;34067;39.548;-76.088;2024-01-10T03:28:50;0;0;
31330;PMS5003;34067;39.548;-76.088;2024-01-10T03:31:19;0;0;
31330;PMS5003;34067;39.548;-76.088;2024-01-10T03:33:46;0;0;
31330;PMS5003;34067;39.548;-76.088;2024-01-10T03:36:15;0;0;
31330;PMS5003;34067;39.548;-76.088;2024-01-10T03:38:44;1;1;
31330;PMS5003;34067;39.548;-76.088;2024-01-10T03:41:13;6;6;
31330;PMS5003;34067;39.548;-76.088;2024-01-10T03:43:41;4;4;
31330;PMS5003;34067;39.548;-76.088;2024-01-10T03:46:09;5;4;
31330;PMS5003;34067;39.548;-76.088;2024-01-10T03:48:37;3;3;
31330;PMS5003;34067;39.548;-76.088;2024-01-10T03:51:05;3;2;
31330;PMS5003;34067;39.548;-76.088;2024-01-10T03:53:33;2;2;
31330;PMS5003;34067;39.548;-76.088;2024-01-10T03:56:03;2;2;
31330;PMS5003;34067;39.548;-76.088;2024-01-10T03:58:31;2;1;
31330;PMS5003;34067;39.548;-76.088;2024-01-10T04:01:00;1;1;
31330;PMS5003;34067;39.548;-76.088;2024-01-10T04:03:32;0;0;
31330;PMS5003;34067;39.548;-76.088;2024-01-10T04:06:00;1;1;
31330;PMS5003;34067;39.548;-76.088;2024-01-10T04:08:28;0;0;
31330;PMS5003;34067;39.548;-76.088;2024-01-10T04:10:56;0;0;
31330;PMS5003;34067;39.548;-76.088;2024-01-10T04:13:24;0;0;
31330;PMS5003;34067;39.548;-76.088;2024-01-10T04:15:52;0;0;
31330;PMS5003;34067;39.548;-76.088;2024-01-10T04:18:20;0;0;
31330;PMS5003;34067;39.548;-76.088;2024-01-10T04:20:49;0;0;
31330;PMS5003;34067;39.548;-76.088;2024-01-10T04:23:17;1;1;
31330;PMS5003;34067;39.548;-76.088;2024-01-10T04:25:45;0;0;
31330;PMS5003;34067;39.548;-76.088;2024-01-10T04:28:13;0;0;
31330;PMS5003;34067;39.548;-76.088;2024-01-10T04:30:41;0;0;
31330;PMS5003;34067;39.548;-76.088;2024-01-10T04:33:09;1;1;
31330;PMS5003;34067;39.548;-76.088;2024-01-10T04:35:37;1;1;
31330;PMS5003;34067;39.548;-76.088;2024-01-10T04:38:05;1;0;
31330;PMS5003;34067;39.548;-76.088;2024-01-10T04:40:33;0;0;
31330;PMS5003;34067;39.548;-76.088;2024-01-10T04:43:01;0;0;
31330;PMS5003;34067;39.548;-76.088;2024-01-10T04:45:29;0;0;
31330;PMS5003;34067;39.548;-76.088;2024-01-10T04:47:57;0;0;
31330;PMS5003;34067;39.548;-76.088;2024-01-10T04:50:25;0;0;
31330;PMS5003;34067;39.548;-76.088;2024-01-10T04:52:53;0;0;
31330;PMS5003;34067;39.548;-76.088;2024-01-10T04:55:21;0;0;
31330;PMS5003;34067;39.548;-76.088;2024-01-10T04:57:49;0;0;
31330;PMS5003;34067;39.548;-76.088;2024-01-10T05:00:17;0;0;
31330;PMS5003;34067;39.548;-76.088;2024-01-10T05:02:45;0;0;
31330;PMS5003;34067;39.548;-76.088;2024-01-10T05:05:13;0;0;
31330;PMS5003;34067;39.548;-76.088;2024-01-10T05:07:41;1;0;
31330;PMS5003;34067;39.548;-76.088;2024-01-10T05:10:09;0;0;
31330;PMS5003;34067;39.548;-76.088;2024-01-10T05:12:37;1;1;
31330;PMS5003;34067;39.548;-76.088;2024-01-10T05:15:06;0;0;
31330;PMS5003;34067;39.548;-76.088;2024-01-10T05:17:34;0;0;
31330;PMS5003;34067;39.548;-76.088;2024-01-10T05:20:02;1;1;
31330;PMS5003;34067;39.548;-76.088;2024-01-10T05:22:31;0;0;
31330;PMS5003;34067;39.548;-76.088;2024-01-10T05:24:59;1;1;
31330;PMS5003;34067;39.548;-76.088;2024-01-10T05:27:27;0;0;
31330;PMS5003;34067;39.548;-76.088;2024-01-10T05:29:55;0;0;
31330;PMS5003;34067;39.548;-76.088;2024-01-10T05:32:23;1;1;
31330;PMS5003;34067;39.548;-76.088;2024-01-10T05:34:51;1;0;
31330;PMS5003;34067;39.548;-76.088;2024-01-10T05:37:19;0;0;
31330;PMS5003;34067;39.548;-76.088;2024-01-10T05:39:47;1;0;
31330;PMS5003;34067;39.548;-76.088;2024-01-10T05:42:15;2;1;
31330;PMS5003;34067;39.548;-76.088;2024-01-10T05:44:43;0;0;
31330;PMS5003;34067;39.548;-76.088;2024-01-10T05:47:11;0;0;
31330;PMS5003;34067;39.548;-76.088;2024-01-10T05:49:39;2;2;
31330;PMS5003;34067;39.548;-76.088;2024-01-10T05:52:07;0;0;
31330;PMS5003;34067;39.548;-76.088;2024-01-10T05:54:35;1;1;
31330;PMS5003;34067;39.548;-76.088;2024-01-10T05:57:03;0;0;
31330;PMS5003;34067;39.548;-76.088;2024-01-10T05:59:31;2;1;
31330;PMS5003;34067;39.548;-76.088;2024-01-10T06:03:10;2;1;
31330;PMS5003;34067;39.548;-76.088;2024-01-10T06:05:38;2;2;
31330;PMS5003;34067;39.548;-76.088;2024-01-10T06:08:06;2;1;
31330;PMS5003;34067;39.548;-76.088;2024-01-10T06:10:34;0;0;
31330;PMS5003;34067;39.548;-76.088;2024-01-10T06:13:02;2;1;
31330;PMS5003;34067;39.548;-76.088;2024-01-10T06:15:30;0;0;
31330;PMS5003;34067;39.548;-76.088;2024-01-10T06:17:58;1;1;
31330;PMS5003;34067;39.548;-76.088;2024-01-10T06:20:26;1;1;
31330;PMS5003;34067;39.548;-76.088;2024-01-10T06:22:54;2;1;
31330;PMS5003;34067;39.548;-76.088;2024-01-10T06:25:22;2;1;
31330;PMS5003;34067;39.548;-76.088;2024-01-10T06:27:50;0;0;
31330;PMS5003;34067;39.548;-76.088;2024-01-10T06:30:18;2;2;
31330;PMS5003;34067;39.548;-76.088;2024-01-10T06:32:46;0;0;
31330;PMS5003;34067;39.548;-76.088;2024-01-10T06:35:14;1;1;
31330;PMS5003;34067;39.548;-76.088;2024-01-10T06:37:42;1;1;
31330;PMS5003;34067;39.548;-76.088;2024-01-10T06:40:10;1;1;
31330;PMS5003;34067;39.548;-76.088;2024-01-10T06:42:39;2;2;
31330;PMS5003;34067;39.548;-76.088;2024-01-10T06:45:07;2;2;
31330;PMS5003;34067;39.548;-76.088;2024-01-10T06:47:36;0;0;
31330;PMS5003;34067;39.548;-76.088;2024-01-10T06:50:05;1;1;
31330;PMS5003;34067;39.548;-76.088;2024-01-10T06:52:34;1;1;
31330;PMS5003;34067;39.548;-76.088;2024-01-10T06:55:02;1;1;
31330;PMS5003;34067;39.548;-76.088;2024-01-10T06:57:30;3;3;
31330;PMS5003;34067;39.548;-76.088;2024-01-10T06:59:58;2;2;
31330;PMS5003;34067;39.548;-76.088;2024-01-10T07:02:26;1;1;
31330;PMS5003;34067;39.548;-76.088;2024-01-10T07:04:54;2;2;
31330;PMS5003;34067;39.548;-76.088;2024-01-10T07:07:22;1;1;
31330;PMS5003;34067;39.548;-76.088;2024-01-10T07:09:50;1;1;
31330;PMS5003;34067;39.548;-76.088;2024-01-10T07:12:18;2;1;
31330;PMS5003;34067;39.548;-76.088;2024-01-10T07:14:46;1;1;
31330;PMS5003;34067;39.548;-76.088;2024-01-10T07:17:14;1;1;
31330;PMS5003;34067;39.548;-76.088;2024-01-10T07:19:42;2;2;
31330;PMS5003;34067;39.548;-76.088;2024-01-10T07:22:10;1;1;
31330;PMS5003;34067;39.548;-76.088;2024-01-10T07:24:38;1;1;
31330;PMS5003;34067;39.548;-76.088;2024-01-10T07:27:06;2;2;
31330;PMS5003;34067;39.548;-76.088;2024-01-10T07:29:34;0;0;
31330;PMS5003;34067;39.548;-76.088;2024-01-10T07:32:02;2;2;
31330;PMS5003;34067;39.548;-76.088;2024-01-10T07:34:30;2;2;
31330;PMS5003;34067;39.548;-76.088;2024-01-10T07:36:58;1;1;
31330;PMS5003;34067;39.548;-76.088;2024-01-10T07:39:26;2;2;
31330;PMS5003;34067;39.548;-76.088;2024-01-10T07:41:54;3;2;
31330;PMS5003;34067;39.548;-76.088;2024-01-10T07:44:23;3;1;
31330;PMS5003;34067;39.548;-76.088;2024-01-10T07:46:51;2;2;
31330;PMS5003;34067;39.548;-76.088;2024-01-10T07:49:19;1;1;
31330;PMS5003;34067;39.548;-76.088;2024-01-10T07:51:47;2;2;
31330;PMS5003;34067;39.548;-76.088;2024-01-10T07:54:15;3;3;
31330;PMS5003;34067;39.548;-76.088;2024-01-10T07:56:43;1;1;
31330;PMS5003;34067;39.548;-76.088;2024-01-10T07:59:11;1;1;
31330;PMS5003;34067;39.548;-76.088;2024-01-10T08:01:39;1;1;
31330;PMS5003;34067;39.548;-76.088;2024-01-10T08:04:08;3;3;
31330;PMS5003;34067;39.548;-76.088;2024-01-10T08:06:37;6;6;
31330;PMS5003;34067;39.548;-76.088;2024-01-10T08:09:04;6;6;
31330;PMS5003;34067;39.548;-76.088;2024-01-10T08:11:32;4;4;
31330;PMS5003;34067;39.548;-76.088;2024-01-10T08:14:01;1;1;
31330;PMS5003;34067;39.548;-76.088;2024-01-10T08:16:29;0;0;
31330;PMS5003;34067;39.548;-76.088;2024-01-10T08:18:57;0;0;
31330;PMS5003;34067;39.548;-76.088;2024-01-10T08:21:25;0;0;
31330;PMS5003;34067;39.548;-76.088;2024-01-10T08:23:53;1;1;
31330;PMS5003;34067;39.548;-76.088;2024-01-10T08:26:21;0;0;
31330;PMS5003;34067;39.548;-76.088;2024-01-10T08:28:49;0;0;
31330;PMS5003;34067;39.548;-76.088;2024-01-10T08:31:17;0;0;
31330;PMS5003;34067;39.548;-76.088;2024-01-10T08:33:45;0;0;
31330;PMS5003;34067;39.548;-76.088;2024-01-10T08:36:13;0;0;
31330;PMS5003;34067;39.548;-76.088;2024-01-10T08:38:41;0;0;
31330;PMS5003;34067;39.548;-76.088;2024-01-10T08:41:09;0;0;
31330;PMS5003;34067;39.548;-76.088;2024-01-10T08:43:38;1;1;
31330;PMS5003;34067;39.548;-76.088;2024-01-10T08:46:07;0;0;
31330;PMS5003;34067;39.548;-76.088;2024-01-10T08:48:36;1;0;
31330;PMS5003;34067;39.548;-76.088;2024-01-10T08:51:04;1;1;
31330;PMS5003;34067;39.548;-76.088;2024-01-10T08:53:32;0;0;
31330;PMS5003;34067;39.548;-76.088;2024-01-10T08:56:00;0;0;
31330;PMS5003;34067;39.548;-76.088;2024-01-10T08:58:28;0;0;
31330;PMS5003;34067;39.548;-76.088;2024-01-10T09:00:56;1;1;
31330;PMS5003;34067;39.548;-76.088;2024-01-10T09:03:24;1;1;
31330;PMS5003;34067;39.548;-76.088;2024-01-10T09:05:52;1;1;
31330;PMS5003;34067;39.548;-76.088;2024-01-10T09:08:20;2;2;
31330;PMS5003;34067;39.548;-76.088;2024-01-10T09:10:49;2;2;
31330;PMS5003;34067;39.548;-76.088;2024-01-10T09:13:16;0;0;
31330;PMS5003;34067;39.548;-76.088;2024-01-10T09:15:45;0;0;
31330;PMS5003;34067;39.548;-76.088;2024-01-10T09:18:13;0;0;
31330;PMS5003;34067;39.548;-76.088;2024-01-10T09:20:41;0;0;
31330;PMS5003;34067;39.548;-76.088;2024-01-10T09:23:09;0;0;
31330;PMS5003;34067;39.548;-76.088;2024-01-10T09:25:37;0;0;
31330;PMS5003;34067;39.548;-76.088;2024-01-10T09:28:05;0;0;
31330;PMS5003;34067;39.548;-76.088;2024-01-10T09:30:33;0;0;
31330;PMS5003;34067;39.548;-76.088;2024-01-10T09:33:02;0;0;
31330;PMS5003;34067;39.548;-76.088;2024-01-10T09:35:30;1;0;
31330;PMS5003;34067;39.548;-76.088;2024-01-10T09:37:58;0;0;
31330;PMS5003;34067;39.548;-76.088;2024-01-10T09:40:26;0;0;
31330;PMS5003;34067;39.548;-76.088;2024-01-10T09:42:54;0;0;
31330;PMS5003;34067;39.548;-76.088;2024-01-10T09:45:22;0;0;
31330;PMS5003;34067;39.548;-76.088;2024-01-10T09:47:54;0;0;
31330;PMS5003;34067;39.548;-76.088;2024-01-10T09:50:24;0;0;
31330;PMS5003;34067;39.548;-76.088;2024-01-10T09:52:53;0;0;
31330;PMS5003;34067;39.548;-76.088;2024-01-10T09:55:25;0;0;
31330;PMS5003;34067;39.548;-76.088;2024-01-10T09:57:58;0;0;
31330;PMS5003;34067;39.548;-76.088;2024-01-10T10:00:28;0;0;
31330;PMS5003;34067;39.548;-76.088;2024-01-10T10:02:56;0;0;
31330;PMS5003;34067;39.548;-76.088;2024-01-10T10:05:26;1;0;
31330;PMS5003;34067;39.548;-76.088;2024-01-10T10:07:55;0;0;
31330;PMS5003;34067;39.548;-76.088;2024-01-10T10:10:23;0;0;
31330;PMS5003;34067;39.548;-76.088;2024-01-10T10:12:52;0;0;
31330;PMS5003;34067;39.548;-76.088;2024-01-10T10:15:20;0;0;
31330;PMS5003;34067;39.548;-76.088;2024-01-10T10:17:49;0;0;
31330;PMS5003;34067;39.548;-76.088;2024-01-10T10:20:20;0;0;
31330;PMS5003;34067;39.548;-76.088;2024-01-10T10:23:05;1;1;
31330;PMS5003;34067;39.548;-76.088;2024-01-10T10:25:34;0;0;
31330;PMS5003;34067;39.548;-76.088;2024-01-10T10:28:04;0;0;
31330;PMS5003;34067;39.548;-76.088;2024-01-10T10:30:32;0;0;
31330;PMS5003;34067;39.548;-76.088;2024-01-10T10:33:00;0;0;
31330;PMS5003;34067;39.548;-76.088;2024-01-10T10:35:29;0;0;
31330;PMS5003;34067;39.548;-76.088;2024-01-10T10:37:57;0;0;
31330;PMS5003;34067;39.548;-76.088;2024-01-10T10:40:26;0;0;
31330;PMS5003;34067;39.548;-76.088;2024-01-10T10:42:55;0;0;
31330;PMS5003;34067;39.548;-76.088;2024-01-10T10:45:23;1;1;
31330;PMS5003;34067;39.548;-76.088;2024-01-10T10:47:54;1;0;
31330;PMS5003;34067;39.548;-76.088;2024-01-10T10:50:24;1;1;
31330;PMS5003;34067;39.548;-76.088;2024-01-10T10:52:54;0;0;
31330;PMS5003;34067;39.548;-76.088;2024-01-10T10:55:23;0;0;
31330;PMS5003;34067;39.548;-76.088;2024-01-10T10:57:54;0;0;
31330;PMS5003;34067;39.548;-76.088;2024-01-10T11:00:23;0;0;
31330;PMS5003;34067;39.548;-76.088;2024-01-10T11:02:51;0;0;
31330;PMS5003;34067;39.548;-76.088;2024-01-10T11:05:20;0;0;
31330;PMS5003;34067;39.548;-76.088;2024-01-10T11:07:48;1;1;
31330;PMS5003;34067;39.548;-76.088;2024-01-10T11:10:17;0;0;
31330;PMS5003;34067;39.548;-76.088;2024-01-10T11:12:53;1;0;
31330;PMS5003;34067;39.548;-76.088;2024-01-10T11:15:43;0;0;
31330;PMS5003;34067;39.548;-76.088;2024-01-10T11:18:29;0;0;
31330;PMS5003;34067;39.548;-76.088;2024-01-10T11:21:15;0;0;
31330;PMS5003;34067;39.548;-76.088;2024-01-10T11:23:50;1;0;
31330;PMS5003;34067;39.548;-76.088;2024-01-10T11:26:21;0;0;
31330;PMS5003;34067;39.548;-76.088;2024-01-10T11:28:49;0;0;
31330;PMS5003;34067;39.548;-76.088;2024-01-10T11:31:27;0;0;
31330;PMS5003;34067;39.548;-76.088;2024-01-10T11:33:56;0;0;
31330;PMS5003;34067;39.548;-76.088;2024-01-10T11:36:24;1;1;
31330;PMS5003;34067;39.548;-76.088;2024-01-10T11:38:54;1;1;
31330;PMS5003;34067;39.548;-76.088;2024-01-10T11:41:25;0;0;
31330;PMS5003;34067;39.548;-76.088;2024-01-10T11:44:27;0;0;
31330;PMS5003;34067;39.548;-76.088;2024-01-10T11:46:56;0;0;
31330;PMS5003;34067;39.548;-76.088;2024-01-10T11:49:25;1;0;
31330;PMS5003;34067;39.548;-76.088;2024-01-10T11:51:54;0;0;
31330;PMS5003;34067;39.548;-76.088;2024-01-10T11:54:40;0;0;
31330;PMS5003;34067;39.548;-76.088;2024-01-10T11:57:10;1;1;
31330;PMS5003;34067;39.548;-76.088;2024-01-10T11:59:41;0;0;
31330;PMS5003;34067;39.548;-76.088;2024-01-10T12:02:10;3;0;
31330;PMS5003;34067;39.548;-76.088;2024-01-10T12:04:38;1;0;
31330;PMS5003;34067;39.548;-76.088;2024-01-10T12:07:06;0;0;
31330;PMS5003;34067;39.548;-76.088;2024-01-10T12:09:35;0;0;
31330;PMS5003;34067;39.548;-76.088;2024-01-10T12:12:03;0;0;
31330;PMS5003;34067;39.548;-76.088;2024-01-10T12:14:31;0;0;
31330;PMS5003;34067;39.548;-76.088;2024-01-10T12:17:00;1;0;
31330;PMS5003;34067;39.548;-76.088;2024-01-10T12:19:28;1;1;
31330;PMS5003;34067;39.548;-76.088;2024-01-10T12:21:55;0;0;
31330;PMS5003;34067;39.548;-76.088;2024-01-10T12:24:23;0;0;
31330;PMS5003;34067;39.548;-76.088;2024-01-10T12:26:55;1;0;
31330;PMS5003;34067;39.548;-76.088;2024-01-10T12:29:22;0;0;
31330;PMS5003;34067;39.548;-76.088;2024-01-10T12:31:51;1;1;
31330;PMS5003;34067;39.548;-76.088;2024-01-10T12:34:19;0;0;
31330;PMS5003;34067;39.548;-76.088;2024-01-10T12:36:48;0;0;
31330;PMS5003;34067;39.548;-76.088;2024-01-10T12:39:16;1;1;
31330;PMS5003;34067;39.548;-76.088;2024-01-10T12:41:44;1;1;
31330;PMS5003;34067;39.548;-76.088;2024-01-10T12:44:12;0;0;
31330;PMS5003;34067;39.548;-76.088;2024-01-10T12:46:56;1;0;
31330;PMS5003;34067;39.548;-76.088;2024-01-10T12:49:24;0;0;
31330;PMS5003;34067;39.548;-76.088;2024-01-10T12:51:52;0;0;
31330;PMS5003;34067;39.548;-76.088;2024-01-10T12:54:20;1;0;
31330;PMS5003;34067;39.548;-76.088;2024-01-10T12:56:49;0;0;
31330;PMS5003;34067;39.548;-76.088;2024-01-10T12:59:17;0;0;
31330;PMS5003;34067;39.548;-76.088;2024-01-10T13:01:45;1;1;
31330;PMS5003;34067;39.548;-76.088;2024-01-10T13:04:13;0;0;
31330;PMS5003;34067;39.548;-76.088;2024-01-10T13:06:41;0;0;
31330;PMS5003;34067;39.548;-76.088;2024-01-10T13:09:09;0;0;
31330;PMS5003;34067;39.548;-76.088;2024-01-10T13:11:38;0;0;
31330;PMS5003;34067;39.548;-76.088;2024-01-10T13:14:06;0;0;
31330;PMS5003;34067;39.548;-76.088;2024-01-10T13:16:34;1;1;
31330;PMS5003;34067;39.548;-76.088;2024-01-10T13:19:02;0;0;
31330;PMS5003;34067;39.548;-76.088;2024-01-10T13:21:31;1;0;
31330;PMS5003;34067;39.548;-76.088;2024-01-10T13:23:59;0;0;
31330;PMS5003;34067;39.548;-76.088;2024-01-10T13:26:27;0;0;
31330;PMS5003;34067;39.548;-76.088;2024-01-10T13:28:56;0;0;
31330;PMS5003;34067;39.548;-76.088;2024-01-10T13:31:24;0;0;
31330;PMS5003;34067;39.548;-76.088;2024-01-10T13:33:52;0;0;
31330;PMS5003;34067;39.548;-76.088;2024-01-10T13:36:20;0;0;
31330;PMS5003;34067;39.548;-76.088;2024-01-10T13:38:48;0;0;
31330;PMS5003;34067;39.548;-76.088;2024-01-10T13:41:16;0;0;
31330;PMS5003;34067;39.548;-76.088;2024-01-10T13:43:44;0;0;
31330;PMS5003;34067;39.548;-76.088;2024-01-10T13:46:12;0;0;
31330;PMS5003;34067;39.548;-76.088;2024-01-10T13:48:41;1;0;
31330;PMS5003;34067;39.548;-76.088;2024-01-10T13:51:09;0;0;
31330;PMS5003;34067;39.548;-76.088;2024-01-10T13:53:37;0;0;
31330;PMS5003;34067;39.548;-76.088;2024-01-10T13:56:05;0;0;
31330;PMS5003;34067;39.548;-76.088;2024-01-10T13:58:33;0;0;
31330;PMS5003;34067;39.548;-76.088;2024-01-10T14:01:02;0;0;
31330;PMS5003;34067;39.548;-76.088;2024-01-10T14:03:30;0;0;
31330;PMS5003;34067;39.548;-76.088;2024-01-10T14:05:58;0;0;
31330;PMS5003;34067;39.548;-76.088;2024-01-10T14:08:26;0;0;
31330;PMS5003;34067;39.548;-76.088;2024-01-10T14:10:53;0;0;
31330;PMS5003;34067;39.548;-76.088;2024-01-10T14:13:22;0;0;
31330;PMS5003;34067;39.548;-76.088;2024-01-10T14:15:50;0;0;
31330;PMS5003;34067;39.548;-76.088;2024-01-10T14:18:18;0;0;
31330;PMS5003;34067;39.548;-76.088;2024-01-10T14:20:46;0;0;
31330;PMS5003;34067;39.548;-76.088;2024-01-10T14:23:14;0;0;
31330;PMS5003;34067;39.548;-76.088;2024-01-10T14:25:43;0;0;
31330;PMS5003;34067;39.548;-76.088;2024-01-10T14:28:11;0;0;
31330;PMS5003;34067;39.548;-76.088;2024-01-10T14:30:39;0;0;
31330;PMS5003;34067;39.548;-76.088;2024-01-10T14:33:07;0;0;
31330;PMS5003;34067;39.548;-76.088;2024-01-10T14:35:36;0;0;
31330;PMS5003;34067;39.548;-76.088;2024-01-10T14:38:03;0;0;
31330;PMS5003;34067;39.548;-76.088;2024-01-10T14:40:32;0;0;
31330;PMS5003;34067;39.548;-76.088;2024-01-10T14:43:00;0;0;
31330;PMS5003;34067;39.548;-76.088;2024-01-10T14:45:28;0;0;
31330;PMS5003;34067;39.548;-76.088;2024-01-10T14:47:56;0;0;
31330;PMS5003;34067;39.548;-76.088;2024-01-10T14:50:24;0;0;
31330;PMS5003;34067;39.548;-76.088;2024-01-10T14:52:52;0;0;
31330;PMS5003;34067;39.548;-76.088;2024-01-10T14:55:21;0;0;
31330;PMS5003;34067;39.548;-76.088;2024-01-10T14:57:49;0;0;
31330;PMS5003;34067;39.548;-76.088;2024-01-10T15:00:17;0;0;
31330;PMS5003;34067;39.548;-76.088;2024-01-10T15:02:45;0;0;
31330;PMS5003;34067;39.548;-76.088;2024-01-10T15:05:14;0;0;
31330;PMS5003;34067;39.548;-76.088;2024-01-10T15:07:41;0;0;
31330;PMS5003;34067;39.548;-76.088;2024-01-10T15:10:10;0;0;
31330;PMS5003;34067;39.548;-76.088;2024-01-10T15:12:38;0;0;
31330;PMS5003;34067;39.548;-76.088;2024-01-10T15:15:06;0;0;
31330;PMS5003;34067;39.548;-76.088;2024-01-10T15:17:35;0;0;
31330;PMS5003;34067;39.548;-76.088;2024-01-10T15:20:03;0;0;
31330;PMS5003;34067;39.548;-76.088;2024-01-10T15:22:32;0;0;
31330;PMS5003;34067;39.548;-76.088;2024-01-10T15:25:00;0;0;
31330;PMS5003;34067;39.548;-76.088;2024-01-10T15:27:29;0;0;
31330;PMS5003;34067;39.548;-76.088;2024-01-10T15:29:57;0;0;
31330;PMS5003;34067;39.548;-76.088;2024-01-10T15:32:25;0;0;
31330;PMS5003;34067;39.548;-76.088;2024-01-10T15:34:53;0;0;
31330;PMS5003;34067;39.548;-76.088;2024-01-10T15:37:21;0;0;
31330;PMS5003;34067;39.548;-76.088;2024-01-10T15:39:49;0;0;
31330;PMS5003;34067;39.548;-76.088;2024-01-10T15:42:17;0;0;
31330;PMS5003;34067;39.548;-76.088;2024-01-10T15:44:46;0;0;
31330;PMS5003;34067;39.548;-76.088;2024-01-10T15:47:14;0;0;
31330;PMS5003;34067;39.548;-76.088;2024-01-10T15:49:42;0;0;
31330;PMS5003;34067;39.548;-76.088;2024-01-10T15:52:10;0;0;
31330;PMS5003;34067;39.548;-76.088;2024-01-10T15:54:38;0;0;
31330;PMS5003;34067;39.548;-76.088;2024-01-10T15:57:06;0;0;
31330;PMS5003;34067;39.548;-76.088;2024-01-10T15:59:35;0;0;
31330;PMS5003;34067;39.548;-76.088;2024-01-10T16:02:03;0;0;
31330;PMS5003;34067;39.548;-76.088;2024-01-10T16:04:31;0;0;
31330;PMS5003;34067;39.548;-76.088;2024-01-10T16:06:59;1;0;
31330;PMS5003;34067;39.548;-76.088;2024-01-10T16:09:27;0;0;
31330;PMS5003;34067;39.548;-76.088;2024-01-10T16:11:55;0;0;
31330;PMS5003;34067;39.548;-76.088;2024-01-10T16:14:24;0;0;
31330;PMS5003;34067;39.548;-76.088;2024-01-10T16:16:52;0;0;
31330;PMS5003;34067;39.548;-76.088;2024-01-10T16:19:21;0;0;
31330;PMS5003;34067;39.548;-76.088;2024-01-10T16:21:50;0;0;
31330;PMS5003;34067;39.548;-76.088;2024-01-10T16:24:18;0;0;
31330;PMS5003;34067;39.548;-76.088;2024-01-10T16:26:46;0;0;
31330;PMS5003;34067;39.548;-76.088;2024-01-10T16:29:14;0;0;